Terminal Aerodrome Forecast
Issued by NWS

Home | Current Version | Previous Version | Text Only | Print | Product List | Glossary On
Versions: 1 2 3 4 5 6 7 8 9 10 11 12 13 14 15 16 17 18 19
000
FTUS43 KTOP 131900 AAA
TAFMHK
TAF AMD
KMHK 131904Z 1319/1418 05011KT P6SM FEW030 SCT050
     FM140200 VRB03KT P6SM FEW150
     FM141300 34008KT P6SM VCTS BKN100CB=

USA.gov is the U.S. government's official web portal to all federal, state and local government web resources and services.